Time;durP1;ratioP1;P1;durP2;ratioP2;P2;SDS_P1;SDS_P2;PMS_P1;PMS_P2;Temp;Humidity;BMP_temperature;BMP_pressure;BME280_temperature;BME280_humidity;BME280_pressure;Samples;Min_cycle;Max_cycle;Signal;HPM_P1;HPM_P2
2022/10/14 00:00:52;;;;;;;29.90;21.27;;;;;;;;;;5019803;28;20214;-70
2022/10/14 00:03:18;;;;;;;26.87;21.40;;;;;;;;;;5037191;28;20195;-70
2022/10/14 00:05:44;;;;;;;27.70;21.87;;;;;;;;;;5037557;28;20594;-70
2022/10/14 00:08:10;;;;;;;30.60;20.73;;;;;;;;;;5038331;28;20218;-70
2022/10/14 00:10:37;;;;;;;33.67;22.43;;;;;;;;;;5035157;28;20179;-70
2022/10/14 00:13:03;;;;;;;30.17;21.83;;;;;;;;;;5016044;28;20179;-70
2022/10/14 00:15:29;;;;;;;35.20;22.37;;;;;;;;;;5033881;28;20221;-70
2022/10/14 00:17:55;;;;;;;31.37;23.53;;;;;;;;;;5033849;28;20195;-70
2022/10/14 00:20:21;;;;;;;32.23;22.60;;;;;;;;;;5016009;28;20228;-70
2022/10/14 00:22:47;;;;;;;32.97;22.93;;;;;;;;;;5033635;28;20175;-70
2022/10/14 00:25:13;;;;;;;34.47;22.60;;;;;;;;;;5033564;28;20214;-70
2022/10/14 00:27:39;;;;;;;34.60;23.20;;;;;;;;;;5033396;28;20229;-71
2022/10/14 00:30:05;;;;;;;34.67;23.93;;;;;;;;;;5015907;28;20275;-70
2022/10/14 00:32:31;;;;;;;34.90;24.57;;;;;;;;;;5033728;28;20187;-71
2022/10/14 00:34:57;;;;;;;34.67;24.47;;;;;;;;;;5033527;28;20175;-71
2022/10/14 00:37:23;;;;;;;37.53;25.63;;;;;;;;;;5033661;28;20618;-71
2022/10/14 00:39:49;;;;;;;32.63;24.30;;;;;;;;;;5015799;28;20670;-70
2022/10/14 00:42:15;;;;;;;34.10;25.13;;;;;;;;;;5033477;28;20179;-70
2022/10/14 00:44:44;;;;;;;35.87;25.33;;;;;;;;;;5015713;28;20683;-69
2022/10/14 00:47:10;;;;;;;38.30;24.63;;;;;;;;;;5015240;28;20225;-70
2022/10/14 00:49:38;;;;;;;35.73;24.00;;;;;;;;;;5034618;28;20205;-70
2022/10/14 00:52:07;;;;;;;39.20;25.23;;;;;;;;;;5016243;28;20183;-70
2022/10/14 00:54:53;;;;;;;38.90;26.40;;;;;;;;;;5035200;28;20644;-70
2022/10/14 00:57:19;;;;;;;36.03;23.90;;;;;;;;;;5032958;28;20247;-70
2022/10/14 00:59:45;;;;;;;35.33;25.20;;;;;;;;;;5033373;28;20210;-70
2022/10/14 01:02:11;;;;;;;36.27;25.27;;;;;;;;;;5033753;28;20189;-70
2022/10/14 01:04:39;;;;;;;37.00;25.00;;;;;;;;;;5033143;28;20202;-70
2022/10/14 01:07:08;;;;;;;38.57;25.07;;;;;;;;;;5032817;28;20210;-70
2022/10/14 01:09:51;;;;;;;35.50;25.90;;;;;;;;;;5015411;28;20184;-70
2022/10/14 01:12:37;;;;;;;44.47;26.23;;;;;;;;;;5015550;28;20190;-70
2022/10/14 01:15:15;;;;;;;34.07;25.00;;;;;;;;;;4998745;28;20191;-70
2022/10/14 01:18:00;;;;;;;36.27;25.73;;;;;;;;;;5015353;28;20199;-70
2022/10/14 01:20:45;;;;;;;35.37;25.27;;;;;;;;;;5015304;28;20175;-70
2022/10/14 01:23:24;;;;;;;40.63;26.17;;;;;;;;;;5033070;28;20179;-70
2022/10/14 01:26:13;;;;;;;33.33;24.67;;;;;;;;;;5015706;28;20179;-70
2022/10/14 01:29:02;;;;;;;38.80;25.17;;;;;;;;;;5032071;28;20207;-69
2022/10/14 01:31:31;;;;;;;34.03;25.13;;;;;;;;;;5002759;28;20194;-69
2022/10/14 01:33:58;;;;;;;41.03;25.90;;;;;;;;;;5033107;28;20267;-70
2022/10/14 01:36:30;;;;;;;37.27;25.60;;;;;;;;;;5032775;28;20660;-69
2022/10/14 01:38:56;;;;;;;35.37;27.10;;;;;;;;;;5032942;28;20203;-69
2022/10/14 01:41:28;;;;;;;35.17;25.17;;;;;;;;;;5032838;28;20617;-69
2022/10/14 01:43:56;;;;;;;40.00;25.60;;;;;;;;;;5032697;28;20675;-70
2022/10/14 01:46:23;;;;;;;34.63;24.80;;;;;;;;;;5032900;28;20183;-69
2022/10/14 01:48:52;;;;;;;38.70;24.97;;;;;;;;;;5032806;28;20561;-69
2022/10/14 01:51:21;;;;;;;37.27;25.17;;;;;;;;;;5014980;28;20279;-70
2022/10/14 01:53:52;;;;;;;34.63;24.90;;;;;;;;;;5014960;28;20205;-70
2022/10/14 01:56:18;;;;;;;34.50;25.53;;;;;;;;;;5033407;28;20168;-70
2022/10/14 01:58:44;;;;;;;39.70;25.77;;;;;;;;;;5015358;28;20209;-70
2022/10/14 02:01:11;;;;;;;35.63;25.57;;;;;;;;;;5036439;28;20186;-70
2022/10/14 02:03:41;;;;;;;47.27;26.70;;;;;;;;;;5036158;28;20210;-70
2022/10/14 02:06:11;;;;;;;37.17;24.90;;;;;;;;;;5036257;28;20186;-70
2022/10/14 02:08:54;;;;;;;39.83;25.93;;;;;;;;;;5036076;28;20268;-69
2022/10/14 02:11:21;;;;;;;35.87;25.70;;;;;;;;;;5036668;28;20167;-68
2022/10/14 02:14:10;;;;;;;36.57;26.30;;;;;;;;;;5035974;28;20274;-70
2022/10/14 02:16:54;;;;;;;37.90;25.40;;;;;;;;;;5018449;28;20675;-69
2022/10/14 02:19:20;;;;;;;36.60;26.87;;;;;;;;;;5036366;28;20160;-70
2022/10/14 02:21:51;;;;;;;40.00;25.47;;;;;;;;;;5036073;28;20179;-69
2022/10/14 02:24:20;;;;;;;32.03;25.87;;;;;;;;;;5018109;28;20202;-70
2022/10/14 02:26:48;;;;;;;33.90;26.00;;;;;;;;;;5018051;28;20183;-70
2022/10/14 02:29:14;;;;;;;32.90;24.90;;;;;;;;;;5018000;28;20183;-69
2022/10/14 02:31:40;;;;;;;35.70;25.60;;;;;;;;;;5035705;28;20344;-69
2022/10/14 02:34:10;;;;;;;35.10;26.57;;;;;;;;;;5035678;28;20180;-69
2022/10/14 02:36:36;;;;;;;32.23;25.63;;;;;;;;;;5035931;28;20551;-69
2022/10/14 02:39:02;;;;;;;33.20;25.70;;;;;;;;;;5017999;28;20203;-70
2022/10/14 02:41:32;;;;;;;36.13;25.80;;;;;;;;;;5017810;28;20190;-69
2022/10/14 02:43:58;;;;;;;31.63;24.90;;;;;;;;;;5035656;28;20579;-70
2022/10/14 02:46:24;;;;;;;37.10;26.73;;;;;;;;;;5017725;28;20206;-69
2022/10/14 02:48:50;;;;;;;34.80;26.23;;;;;;;;;;5035743;28;20199;-69
2022/10/14 02:51:16;;;;;;;36.57;26.73;;;;;;;;;;5017532;28;20183;-70
2022/10/14 02:53:42;;;;;;;33.80;26.67;;;;;;;;;;5017432;28;20253;-70
2022/10/14 02:56:08;;;;;;;36.23;27.90;;;;;;;;;;5035819;28;20590;-69
2022/10/14 02:58:34;;;;;;;35.43;27.20;;;;;;;;;;5017340;28;20207;-70
2022/10/14 03:01:00;;;;;;;38.67;28.37;;;;;;;;;;5017451;28;20205;-69
2022/10/14 03:03:26;;;;;;;40.50;29.37;;;;;;;;;;5036137;28;20207;-70
2022/10/14 03:05:52;;;;;;;41.50;29.53;;;;;;;;;;5035351;28;20265;-70
2022/10/14 03:08:18;;;;;;;40.13;29.67;;;;;;;;;;5035056;28;20694;-70
2022/10/14 03:10:47;;;;;;;40.63;29.93;;;;;;;;;;5016355;28;20667;-70
2022/10/14 03:13:14;;;;;;;39.70;30.97;;;;;;;;;;5017068;28;20186;-70
2022/10/14 03:15:43;;;;;;;40.73;29.97;;;;;;;;;;5035476;28;20187;-70
2022/10/14 03:18:09;;;;;;;38.37;30.07;;;;;;;;;;5038541;28;20274;-70
2022/10/14 03:20:36;;;;;;;41.77;30.70;;;;;;;;;;5039521;28;20607;-70
2022/10/14 03:23:02;;;;;;;42.57;30.40;;;;;;;;;;5020963;28;20205;-70
2022/10/14 03:25:28;;;;;;;41.70;30.40;;;;;;;;;;5037769;28;20210;-70
2022/10/14 03:27:53;;;;;;;36.20;28.90;;;;;;;;;;5034563;28;20201;-70
2022/10/14 03:30:19;;;;;;;43.33;30.50;;;;;;;;;;5035213;28;20615;-70
2022/10/14 03:32:45;;;;;;;39.23;28.93;;;;;;;;;;5034630;28;20258;-71
2022/10/14 03:35:11;;;;;;;38.80;30.10;;;;;;;;;;5016769;28;20713;-70
2022/10/14 03:37:37;;;;;;;40.73;30.20;;;;;;;;;;5016833;28;20256;-70
2022/10/14 03:40:04;;;;;;;45.40;30.80;;;;;;;;;;5034436;28;20179;-70
2022/10/14 03:42:29;;;;;;;41.90;29.90;;;;;;;;;;5016452;28;20183;-70
2022/10/14 03:44:55;;;;;;;42.30;30.47;;;;;;;;;;5016502;28;20257;-70
2022/10/14 03:47:21;;;;;;;42.07;30.73;;;;;;;;;;5034677;28;20213;-72
2022/10/14 03:49:47;;;;;;;42.67;31.83;;;;;;;;;;5016530;28;20586;-70
2022/10/14 03:52:13;;;;;;;47.10;33.43;;;;;;;;;;5016352;28;20631;-70
2022/10/14 03:54:39;;;;;;;44.50;32.83;;;;;;;;;;5034150;28;20262;-70
2022/10/14 03:57:05;;;;;;;45.77;32.23;;;;;;;;;;5033953;28;20210;-71
2022/10/14 03:59:31;;;;;;;44.40;32.13;;;;;;;;;;5034190;28;20186;-69
2022/10/14 04:01:57;;;;;;;50.67;33.63;;;;;;;;;;5033967;28;20277;-70
2022/10/14 04:04:23;;;;;;;47.77;32.97;;;;;;;;;;5016113;28;20207;-70
2022/10/14 04:06:49;;;;;;;49.57;33.33;;;;;;;;;;5033612;28;20254;-70
2022/10/14 04:09:15;;;;;;;49.57;33.50;;;;;;;;;;5034242;28;20168;-70
2022/10/14 04:11:41;;;;;;;48.37;33.40;;;;;;;;;;5033681;28;20175;-70
2022/10/14 04:14:08;;;;;;;51.47;33.43;;;;;;;;;;5016350;28;20201;-70
2022/10/14 04:16:34;;;;;;;52.90;33.80;;;;;;;;;;5033827;28;20206;-70
2022/10/14 04:19:00;;;;;;;45.73;33.30;;;;;;;;;;5033892;28;20546;-70
2022/10/14 04:21:25;;;;;;;52.53;33.80;;;;;;;;;;5015787;28;20215;-69
2022/10/14 04:23:51;;;;;;;52.23;34.50;;;;;;;;;;5015941;28;20234;-70
2022/10/14 04:26:17;;;;;;;48.87;34.23;;;;;;;;;;5034155;28;20258;-69
2022/10/14 04:28:43;;;;;;;51.17;35.50;;;;;;;;;;5033554;28;20718;-71
2022/10/14 04:31:09;;;;;;;56.00;35.73;;;;;;;;;;5033596;28;20183;-69
2022/10/14 04:33:35;;;;;;;52.00;34.93;;;;;;;;;;5015779;28;20183;-69
2022/10/14 04:36:03;;;;;;;49.87;34.10;;;;;;;;;;5033402;28;20176;-69
2022/10/14 04:38:29;;;;;;;51.10;34.93;;;;;;;;;;5016527;28;20261;-69
2022/10/14 04:40:55;;;;;;;43.93;32.70;;;;;;;;;;5033415;28;20575;-69
2022/10/14 04:43:21;;;;;;;45.87;33.00;;;;;;;;;;5015487;28;20183;-69
2022/10/14 04:45:47;;;;;;;48.93;33.50;;;;;;;;;;5033771;28;20183;-71
2022/10/14 04:48:14;;;;;;;45.73;32.63;;;;;;;;;;5015786;28;20619;-70
2022/10/14 04:50:40;;;;;;;45.40;32.17;;;;;;;;;;5015810;28;20187;-70
2022/10/14 04:53:06;;;;;;;46.17;31.30;;;;;;;;;;5015576;28;20190;-70
2022/10/14 04:55:32;;;;;;;44.13;31.40;;;;;;;;;;5033170;28;20214;-69
2022/10/14 04:57:58;;;;;;;49.47;31.97;;;;;;;;;;5032968;28;20202;-71
2022/10/14 05:00:24;;;;;;;44.83;30.17;;;;;;;;;;5033330;28;20183;-70
2022/10/14 05:02:50;;;;;;;45.00;30.50;;;;;;;;;;5033757;28;20201;-70
2022/10/14 05:05:15;;;;;;;47.20;31.60;;;;;;;;;;5033801;28;20221;-69
2022/10/14 05:07:41;;;;;;;45.57;30.60;;;;;;;;;;5033184;28;20746;-69
2022/10/14 05:10:11;;;;;;;44.40;30.23;;;;;;;;;;5015612;28;20187;-69
2022/10/14 05:12:37;;;;;;;46.20;30.30;;;;;;;;;;5016202;28;20189;-70
2022/10/14 05:15:04;;;;;;;49.60;31.03;;;;;;;;;;5033435;28;20186;-69
2022/10/14 05:17:31;;;;;;;44.57;30.83;;;;;;;;;;5032954;28;20214;-69
2022/10/14 05:19:57;;;;;;;41.77;29.07;;;;;;;;;;5015277;28;20206;-69
2022/10/14 05:22:23;;;;;;;42.90;28.73;;;;;;;;;;5015122;28;20225;-69
2022/10/14 05:24:49;;;;;;;37.27;28.17;;;;;;;;;;5015073;28;20647;-68
2022/10/14 05:27:15;;;;;;;41.73;28.67;;;;;;;;;;5015016;28;20231;-69
2022/10/14 05:29:41;;;;;;;39.37;26.80;;;;;;;;;;5032770;28;20209;-69
2022/10/14 05:32:07;;;;;;;36.03;26.43;;;;;;;;;;5032710;28;20186;-69
2022/10/14 05:34:33;;;;;;;36.13;25.83;;;;;;;;;;5016849;28;20187;-69
2022/10/14 05:36:59;;;;;;;36.27;26.03;;;;;;;;;;5036967;28;20179;-69
2022/10/14 05:39:25;;;;;;;38.63;27.27;;;;;;;;;;5037034;28;20654;-69
2022/10/14 05:41:51;;;;;;;38.73;27.43;;;;;;;;;;5018980;28;20601;-70
2022/10/14 05:44:17;;;;;;;38.50;27.20;;;;;;;;;;5036426;28;20195;-69
2022/10/14 05:46:43;;;;;;;44.60;29.27;;;;;;;;;;5018477;28;20225;-69
2022/10/14 05:49:10;;;;;;;38.53;28.33;;;;;;;;;;5036320;28;20171;-70
2022/10/14 05:51:36;;;;;;;44.00;29.50;;;;;;;;;;5036670;28;20186;-69
2022/10/14 05:54:02;;;;;;;41.77;29.50;;;;;;;;;;5018414;28;20183;-69
2022/10/14 05:56:28;;;;;;;44.20;32.77;;;;;;;;;;5018468;28;20189;-69
2022/10/14 05:58:54;;;;;;;47.37;34.67;;;;;;;;;;5036140;28;20226;-69
2022/10/14 06:01:19;;;;;;;59.40;43.27;;;;;;;;;;5036173;28;20251;-69
2022/10/14 06:03:49;;;;;;;58.17;41.73;;;;;;;;;;5018265;28;20194;-69
2022/10/14 06:06:15;;;;;;;59.87;41.63;;;;;;;;;;5030789;23;20695;-65
2022/10/14 06:08:41;;;;;;;57.03;40.60;;;;;;;;;;5015173;28;20176;-65
2022/10/14 06:11:07;;;;;;;50.07;35.50;;;;;;;;;;5015494;28;20180;-66
2022/10/14 06:13:33;;;;;;;44.77;32.23;;;;;;;;;;5015138;28;20180;-66
2022/10/14 06:16:06;;;;;;;43.20;31.67;;;;;;;;;;5016519;28;20200;-66
2022/10/14 06:18:32;;;;;;;44.20;29.17;;;;;;;;;;5016324;28;20191;-66
2022/10/14 06:20:59;;;;;;;39.00;28.47;;;;;;;;;;5015208;28;20226;-66
2022/10/14 06:23:24;;;;;;;46.07;29.83;;;;;;;;;;5016071;28;20179;-66
2022/10/14 06:25:50;;;;;;;38.40;29.30;;;;;;;;;;5016448;28;20668;-66
2022/10/14 06:28:16;;;;;;;44.67;30.83;;;;;;;;;;5016134;28;20176;-64
2022/10/14 06:30:42;;;;;;;48.13;35.33;;;;;;;;;;5016135;28;20183;-66
2022/10/14 06:33:08;;;;;;;51.47;36.17;;;;;;;;;;5016555;28;20633;-66
2022/10/14 06:35:34;;;;;;;46.17;35.17;;;;;;;;;;5016389;28;20226;-65
2022/10/14 06:38:00;;;;;;;55.97;41.20;;;;;;;;;;5016156;28;20176;-66
2022/10/14 06:40:26;;;;;;;38.77;27.07;;;;;;;;;;5015417;28;20190;-66
2022/10/14 06:42:52;;;;;;;45.83;32.63;;;;;;;;;;5014531;28;20184;-67
2022/10/14 06:45:18;;;;;;;47.07;32.63;;;;;;;;;;5014744;28;20739;-64
2022/10/14 06:47:44;;;;;;;41.27;26.30;;;;;;;;;;5016346;28;20258;-65
2022/10/14 06:50:10;;;;;;;38.60;26.30;;;;;;;;;;5014324;28;20199;-65
2022/10/14 06:52:36;;;;;;;34.07;23.57;;;;;;;;;;5015757;28;20636;-65
2022/10/14 06:55:02;;;;;;;35.33;24.30;;;;;;;;;;5016119;28;20184;-65
2022/10/14 06:57:28;;;;;;;36.17;24.37;;;;;;;;;;5015376;28;20282;-66
2022/10/14 06:59:54;;;;;;;32.20;24.13;;;;;;;;;;5015331;28;20207;-66
2022/10/14 07:02:20;;;;;;;34.07;22.53;;;;;;;;;;5014002;28;20210;-65
2022/10/14 07:04:46;;;;;;;30.67;22.03;;;;;;;;;;5015270;28;20286;-65
2022/10/14 07:07:12;;;;;;;29.90;21.73;;;;;;;;;;5015053;28;20215;-65
2022/10/14 07:09:39;;;;;;;26.53;20.97;;;;;;;;;;5015246;28;20645;-65
2022/10/14 07:12:05;;;;;;;31.83;21.70;;;;;;;;;;5015145;28;20230;-65
2022/10/14 07:14:31;;;;;;;27.10;21.27;;;;;;;;;;5015076;28;20184;-66
2022/10/14 07:16:57;;;;;;;28.80;20.33;;;;;;;;;;5013763;28;20214;-65
2022/10/14 07:19:23;;;;;;;26.07;18.73;;;;;;;;;;5015408;28;20180;-65
2022/10/14 07:21:49;;;;;;;25.97;18.53;;;;;;;;;;5015408;28;20629;-64
2022/10/14 07:24:15;;;;;;;26.80;18.70;;;;;;;;;;5014784;28;20210;-65
2022/10/14 07:26:41;;;;;;;26.50;19.33;;;;;;;;;;5014675;28;20254;-65
2022/10/14 07:29:07;;;;;;;33.87;19.63;;;;;;;;;;5014867;28;20175;-65
2022/10/14 07:31:33;;;;;;;31.10;19.47;;;;;;;;;;5014752;28;20208;-65
2022/10/14 07:34:00;;;;;;;26.97;19.63;;;;;;;;;;5015421;28;20180;-66
2022/10/14 07:36:26;;;;;;;26.43;18.83;;;;;;;;;;5015139;28;20196;-66
2022/10/14 07:38:52;;;;;;;24.03;18.17;;;;;;;;;;5014935;28;20183;-66
2022/10/14 07:41:20;;;;;;;24.93;18.60;;;;;;;;;;5014639;28;20183;-65
2022/10/14 07:43:47;;;;;;;24.20;18.70;;;;;;;;;;5014572;28;20206;-66
2022/10/14 07:46:14;;;;;;;25.33;19.17;;;;;;;;;;5014932;28;20287;-65
2022/10/14 07:48:40;;;;;;;26.30;19.87;;;;;;;;;;5014933;28;20182;-65
2022/10/14 07:51:09;;;;;;;27.07;19.60;;;;;;;;;;5014568;28;20171;-66
2022/10/14 07:53:36;;;;;;;27.70;20.50;;;;;;;;;;5014446;28;20263;-65
2022/10/14 07:56:02;;;;;;;32.13;21.60;;;;;;;;;;5013118;28;20204;-65
2022/10/14 07:58:29;;;;;;;29.37;22.10;;;;;;;;;;5014097;28;20538;-65
2022/10/14 08:00:55;;;;;;;31.87;21.27;;;;;;;;;;5014351;28;20237;-64
2022/10/14 08:03:22;;;;;;;27.87;22.17;;;;;;;;;;5014389;28;20176;-65
2022/10/14 08:05:49;;;;;;;29.57;22.13;;;;;;;;;;5014224;28;20195;-66
2022/10/14 08:08:15;;;;;;;31.10;21.47;;;;;;;;;;5013001;28;20176;-65
2022/10/14 08:10:42;;;;;;;29.57;21.67;;;;;;;;;;5012944;28;20234;-65
2022/10/14 08:13:08;;;;;;;30.10;20.47;;;;;;;;;;5013996;28;20255;-66
2022/10/14 08:15:39;;;;;;;30.40;20.47;;;;;;;;;;5014203;28;20238;-65
2022/10/14 08:18:06;;;;;;;21.97;19.43;;;;;;;;;;5014313;28;20176;-65
2022/10/14 08:20:32;;;;;;;25.07;19.10;;;;;;;;;;5014090;28;20271;-66
2022/10/14 08:22:58;;;;;;;27.77;20.40;;;;;;;;;;5014449;28;20537;-65
2022/10/14 08:25:24;;;;;;;22.17;19.20;;;;;;;;;;5013889;28;20253;-65
2022/10/14 08:27:52;;;;;;;25.00;19.27;;;;;;;;;;5013905;28;20179;-66
2022/10/14 08:30:18;;;;;;;24.03;18.37;;;;;;;;;;5014352;28;20176;-66
2022/10/14 08:32:44;;;;;;;22.53;18.03;;;;;;;;;;5013746;28;20520;-66
2022/10/14 08:35:10;;;;;;;24.57;19.20;;;;;;;;;;5013734;28;20191;-65
2022/10/14 08:37:37;;;;;;;25.33;19.93;;;;;;;;;;5013586;28;20287;-66
2022/10/14 08:40:03;;;;;;;25.03;18.87;;;;;;;;;;5013593;28;20219;-66
2022/10/14 08:42:39;;;;;;;19.60;17.37;;;;;;;;;;5012255;28;20211;-66
2022/10/14 08:45:09;;;;;;;20.77;17.63;;;;;;;;;;5013744;28;20331;-66
2022/10/14 08:47:38;;;;;;;19.10;15.97;;;;;;;;;;5013371;28;20253;-66
2022/10/14 08:50:05;;;;;;;19.90;16.47;;;;;;;;;;5012220;28;20233;-66
2022/10/14 08:52:38;;;;;;;19.63;17.20;;;;;;;;;;5012118;28;20191;-66
2022/10/14 08:55:22;;;;;;;20.67;15.73;;;;;;;;;;5013436;28;20202;-66
2022/10/14 08:57:50;;;;;;;18.60;14.37;;;;;;;;;;5013619;28;20190;-66
2022/10/14 09:00:17;;;;;;;15.33;13.73;;;;;;;;;;5012052;28;20184;-66
2022/10/14 09:02:47;;;;;;;16.23;14.40;;;;;;;;;;5013415;28;20184;-66
2022/10/14 09:05:14;;;;;;;15.67;13.13;;;;;;;;;;5013862;28;20611;-67
2022/10/14 09:07:41;;;;;;;13.40;11.97;;;;;;;;;;5012486;28;20230;-66
2022/10/14 09:10:11;;;;;;;14.50;11.70;;;;;;;;;;5015163;28;20187;-70
2022/10/14 09:12:38;;;;;;;12.87;11.57;;;;;;;;;;5018004;28;20195;-66
2022/10/14 09:15:12;;;;;;;12.73;11.43;;;;;;;;;;5017408;28;20191;-66
2022/10/14 09:17:43;;;;;;;11.53;10.20;;;;;;;;;;5016041;28;20706;-66
2022/10/14 09:20:20;;;;;;;10.67;9.67;;;;;;;;;;5017499;28;20625;-66
2022/10/14 09:23:04;;;;;;;13.07;10.63;;;;;;;;;;5017148;28;20179;-66
2022/10/14 09:25:32;;;;;;;12.77;9.57;;;;;;;;;;5017700;28;20207;-66
2022/10/14 09:27:58;;;;;;;11.67;10.47;;;;;;;;;;5015741;28;20229;-66
2022/10/14 09:30:24;;;;;;;9.40;8.60;;;;;;;;;;5015790;28;20176;-66
2022/10/14 09:32:52;;;;;;;10.20;8.43;;;;;;;;;;5015625;28;20176;-67
2022/10/14 09:35:31;;;;;;;7.97;6.90;;;;;;;;;;5015540;28;20187;-66
2022/10/14 09:37:58;;;;;;;10.33;7.30;;;;;;;;;;5015820;28;20187;-66
2022/10/14 09:40:42;;;;;;;9.67;6.60;;;;;;;;;;5015377;28;20191;-66
2022/10/14 09:43:08;;;;;;;8.13;6.53;;;;;;;;;;5016594;28;20262;-66
2022/10/14 09:45:52;;;;;;;7.63;6.33;;;;;;;;;;5015127;28;20649;-66
2022/10/14 09:48:21;;;;;;;8.07;7.27;;;;;;;;;;5015346;28;20275;-66
2022/10/14 09:50:55;;;;;;;7.73;6.73;;;;;;;;;;5016701;28;20180;-66
2022/10/14 09:53:29;;;;;;;7.70;7.00;;;;;;;;;;5016791;28;20190;-65
2022/10/14 09:56:00;;;;;;;6.80;6.20;;;;;;;;;;5015167;28;20718;-66
2022/10/14 09:58:44;;;;;;;7.57;6.47;;;;;;;;;;5015358;28;20186;-66
2022/10/14 10:01:14;;;;;;;9.67;6.90;;;;;;;;;;5015342;28;20180;-66
2022/10/14 10:03:40;;;;;;;8.23;6.33;;;;;;;;;;5016649;28;20219;-66
2022/10/14 10:06:08;;;;;;;9.00;7.13;;;;;;;;;;5014950;28;20675;-67
2022/10/14 10:08:37;;;;;;;8.53;7.13;;;;;;;;;;5014935;28;20176;-66
2022/10/14 10:11:09;;;;;;;8.73;7.80;;;;;;;;;;5014847;28;20180;-65
2022/10/14 10:13:40;;;;;;;7.80;6.97;;;;;;;;;;5016279;28;20179;-66
2022/10/14 10:16:07;;;;;;;6.90;6.20;;;;;;;;;;5016226;28;20196;-66
2022/10/14 10:18:33;;;;;;;7.40;6.30;;;;;;;;;;5016542;28;20538;-66
2022/10/14 10:21:01;;;;;;;8.77;6.63;;;;;;;;;;5015965;28;20176;-66
2022/10/14 10:23:28;;;;;;;7.97;6.60;;;;;;;;;;5015111;28;20179;-65
2022/10/14 10:25:54;;;;;;;7.13;6.37;;;;;;;;;;5016591;28;20200;-66
2022/10/14 10:28:30;;;;;;;13.33;6.07;;;;;;;;;;5016694;28;20176;-66
2022/10/14 10:31:02;;;;;;;7.77;6.43;;;;;;;;;;5016723;28;20175;-65
2022/10/14 10:33:42;;;;;;;6.90;6.20;;;;;;;;;;5015596;28;20271;-66
2022/10/14 10:36:16;;;;;;;9.67;6.53;;;;;;;;;;5016989;28;20191;-65
2022/10/14 10:38:58;;;;;;;7.70;6.30;;;;;;;;;;5015492;28;20180;-65
2022/10/14 10:41:36;;;;;;;7.97;6.73;;;;;;;;;;5016768;28;20527;-66
2022/10/14 10:44:08;;;;;;;6.40;5.80;;;;;;;;;;5016889;28;20227;-65
2022/10/14 10:46:53;;;;;;;6.30;5.70;;;;;;;;;;5014875;28;20192;-66
2022/10/14 10:49:25;;;;;;;7.97;6.47;;;;;;;;;;5015127;28;20182;-66
2022/10/14 10:51:54;;;;;;;9.77;6.87;;;;;;;;;;5016580;28;20176;-65
2022/10/14 10:54:20;;;;;;;8.50;7.10;;;;;;;;;;5016439;28;20188;-65
2022/10/14 10:56:56;;;;;;;7.10;6.47;;;;;;;;;;5014486;28;20698;-65
2022/10/14 10:59:42;;;;;;;7.10;6.40;;;;;;;;;;5015714;28;20179;-65
2022/10/14 11:02:26;;;;;;;8.00;7.20;;;;;;;;;;5015498;28;20259;-65
2022/10/14 11:05:11;;;;;;;7.90;6.30;;;;;;;;;;5015625;28;20680;-65
2022/10/14 11:13:36;;;;;;;8.50;7.60;;;;;;;;;;5015221;28;20218;-66
2022/10/14 11:16:02;;;;;;;8.47;7.63;;;;;;;;;;5013869;28;20301;-66
2022/10/14 11:18:44;;;;;;;11.83;9.20;;;;;;;;;;5015547;28;20216;-65
2022/10/14 11:21:12;;;;;;;10.77;8.80;;;;;;;;;;5015066;28;20160;-65
2022/10/14 11:23:55;;;;;;;12.33;8.63;;;;;;;;;;5014978;28;20374;-65
2022/10/14 11:26:33;;;;;;;11.53;10.33;;;;;;;;;;5013659;28;20708;-65
2022/10/14 11:29:06;;;;;;;11.67;9.70;;;;;;;;;;5015367;28;20167;-65
2022/10/14 11:31:32;;;;;;;11.33;9.57;;;;;;;;;;5013053;28;20184;-65
2022/10/14 11:33:58;;;;;;;11.87;10.10;;;;;;;;;;5015382;28;20180;-66
2022/10/14 11:36:24;;;;;;;11.73;9.23;;;;;;;;;;5014709;28;20200;-65
2022/10/14 11:38:58;;;;;;;13.00;10.07;;;;;;;;;;5015025;28;20219;-67
2022/10/14 11:41:31;;;;;;;13.13;9.80;;;;;;;;;;5014931;28;20639;-65
2022/10/14 11:44:04;;;;;;;12.03;10.83;;;;;;;;;;5013372;28;20215;-66
2022/10/14 11:46:34;;;;;;;16.57;11.77;;;;;;;;;;5014840;28;20195;-65
2022/10/14 11:49:20;;;;;;;15.07;12.20;;;;;;;;;;5015149;28;20160;-66
2022/10/14 11:51:52;;;;;;;14.63;13.03;;;;;;;;;;5014398;28;20175;-65
2022/10/14 11:54:22;;;;;;;17.77;13.40;;;;;;;;;;5013465;28;20183;-65
2022/10/14 11:56:54;;;;;;;16.10;13.70;;;;;;;;;;5013147;28;20763;-66
2022/10/14 11:59:39;;;;;;;16.33;14.03;;;;;;;;;;5014599;28;20242;-66
2022/10/14 12:02:27;;;;;;;17.20;14.67;;;;;;;;;;5014755;28;20176;-66
2022/10/14 12:04:57;;;;;;;24.10;17.93;;;;;;;;;;5014352;28;20311;-66
2022/10/14 12:07:26;;;;;;;22.70;15.73;;;;;;;;;;5014011;28;20219;-66
2022/10/14 12:10:03;;;;;;;17.47;15.27;;;;;;;;;;5012805;28;20188;-66
2022/10/14 12:12:30;;;;;;;17.93;15.93;;;;;;;;;;5012869;28;20254;-66
2022/10/14 12:14:59;;;;;;;20.97;15.43;;;;;;;;;;5014321;28;20184;-66
2022/10/14 12:17:47;;;;;;;29.70;24.80;;;;;;;;;;5014592;28;20204;-67
2022/10/14 12:20:21;;;;;;;26.57;19.23;;;;;;;;;;5014092;28;20211;-66
2022/10/14 12:22:48;;;;;;;24.77;21.53;;;;;;;;;;5012885;28;20631;-66
2022/10/14 12:25:17;;;;;;;27.03;18.23;;;;;;;;;;5013955;28;20204;-66
2022/10/14 12:27:43;;;;;;;22.30;18.83;;;;;;;;;;5012843;28;20672;-66
2022/10/14 12:30:32;;;;;;;20.70;18.53;;;;;;;;;;5014488;28;20176;-67
2022/10/14 12:33:01;;;;;;;23.40;19.53;;;;;;;;;;5014211;28;20175;-67
2022/10/14 12:35:47;;;;;;;24.47;19.10;;;;;;;;;;5012519;28;20192;-68
2022/10/14 12:38:13;;;;;;;22.77;20.07;;;;;;;;;;5013875;28;20211;-67
2022/10/14 12:40:39;;;;;;;22.43;20.03;;;;;;;;;;5014467;28;20179;-67
2022/10/14 12:43:13;;;;;;;27.37;23.30;;;;;;;;;;5013377;28;20657;-67
2022/10/14 12:45:47;;;;;;;28.40;23.30;;;;;;;;;;5013765;28;20299;-65
2022/10/14 12:48:18;;;;;;;27.30;21.97;;;;;;;;;;5014045;28;20164;-66
2022/10/14 12:50:47;;;;;;;24.23;19.93;;;;;;;;;;5012233;28;20180;-66
2022/10/14 12:53:20;;;;;;;26.70;21.23;;;;;;;;;;5013858;28;20180;-65
2022/10/14 12:56:07;;;;;;;26.77;21.10;;;;;;;;;;5012336;28;20187;-65
2022/10/14 12:58:35;;;;;;;25.67;21.57;;;;;;;;;;5013567;28;20585;-66
2022/10/14 13:01:04;;;;;;;27.63;22.27;;;;;;;;;;5012264;28;20222;-65
2022/10/14 13:03:32;;;;;;;26.63;23.50;;;;;;;;;;5012413;28;20237;-68
2022/10/14 13:06:16;;;;;;;29.27;22.77;;;;;;;;;;5013069;28;20759;-66
2022/10/14 13:09:02;;;;;;;26.27;23.13;;;;;;;;;;5013378;28;20180;-65
2022/10/14 13:11:29;;;;;;;28.63;25.50;;;;;;;;;;5013407;28;20641;-65
2022/10/14 13:13:59;;;;;;;30.50;24.57;;;;;;;;;;5013449;28;20180;-67
2022/10/14 13:16:25;;;;;;;29.20;25.73;;;;;;;;;;5013295;28;20294;-65
2022/10/14 13:18:51;;;;;;;32.03;26.10;;;;;;;;;;5013486;28;20191;-65
2022/10/14 13:21:36;;;;;;;33.13;26.20;;;;;;;;;;5013327;28;20184;-67
2022/10/14 13:24:05;;;;;;;28.73;25.23;;;;;;;;;;5013250;28;20203;-66
2022/10/14 13:26:43;;;;;;;29.23;23.83;;;;;;;;;;5013228;28;20196;-66
2022/10/14 13:29:09;;;;;;;31.63;22.87;;;;;;;;;;5011992;28;20728;-66
2022/10/14 13:31:46;;;;;;;30.00;23.83;;;;;;;;;;5013561;28;20204;-66
2022/10/14 13:34:33;;;;;;;31.60;23.50;;;;;;;;;;5013241;28;20222;-67
2022/10/14 13:37:18;;;;;;;27.50;24.03;;;;;;;;;;5011938;28;20203;-66
2022/10/14 13:39:44;;;;;;;29.13;23.97;;;;;;;;;;5013086;28;20533;-66
2022/10/14 13:42:13;;;;;;;28.00;25.00;;;;;;;;;;5013012;28;20188;-66
2022/10/14 13:44:39;;;;;;;30.53;27.03;;;;;;;;;;5013253;28;20737;-66
2022/10/14 13:47:05;;;;;;;33.87;28.47;;;;;;;;;;5012936;28;20274;-66
2022/10/14 13:49:35;;;;;;;35.30;29.97;;;;;;;;;;5011669;28;20184;-66
2022/10/14 13:52:06;;;;;;;33.23;28.10;;;;;;;;;;5040818;23;20234;-72
2022/10/14 13:54:32;;;;;;;33.10;28.00;;;;;;;;;;5024536;28;20179;-70
2022/10/14 13:57:16;;;;;;;33.50;28.37;;;;;;;;;;5051605;28;20175;-72
2022/10/14 13:59:43;;;;;;;38.83;29.97;;;;;;;;;;5053543;28;20211;-73
2022/10/14 14:02:18;;;;;;;33.57;29.63;;;;;;;;;;5048322;28;20199;-72
2022/10/14 14:04:47;;;;;;;29.73;26.13;;;;;;;;;;5018805;28;20199;-71
2022/10/14 14:07:16;;;;;;;32.60;25.80;;;;;;;;;;5036505;28;20655;-72
2022/10/14 14:09:47;;;;;;;27.50;24.33;;;;;;;;;;5036594;28;20183;-70
2022/10/14 14:12:13;;;;;;;33.47;26.43;;;;;;;;;;5037396;28;20546;-71
2022/10/14 14:14:41;;;;;;;30.57;27.20;;;;;;;;;;5036745;28;20183;-71
2022/10/14 14:17:13;;;;;;;28.30;23.80;;;;;;;;;;5037301;28;20183;-70
2022/10/14 14:19:42;;;;;;;26.17;23.37;;;;;;;;;;5019197;28;20179;-70
2022/10/14 14:22:18;;;;;;;27.70;24.80;;;;;;;;;;5036288;28;20199;-71
2022/10/14 14:24:45;;;;;;;28.70;25.40;;;;;;;;;;5036263;28;20194;-71
2022/10/14 14:27:15;;;;;;;35.43;30.97;;;;;;;;;;5036524;28;20175;-71
2022/10/14 14:29:43;;;;;;;29.00;26.03;;;;;;;;;;5036696;28;20571;-69
2022/10/14 14:32:18;;;;;;;37.60;29.90;;;;;;;;;;5018183;28;20199;-70
2022/10/14 14:34:46;;;;;;;38.17;29.47;;;;;;;;;;5036128;28;20226;-71
2022/10/14 14:37:20;;;;;;;40.27;36.13;;;;;;;;;;5036131;28;20572;-70
2022/10/14 14:39:54;;;;;;;35.53;28.27;;;;;;;;;;5037347;28;20648;-70